Portada
METAR-TAF:

METAR-TAF

Aeroports :

Florianópolis, Santa Catarina, Brasil

latitud: 27-40S, longitud: 048-33W, altitud: 5 m

Observació

L'informe es va fer fa 25 minuts, a les 17:00 UTC
Vent 9 kt del Sud
Temperatura 15°C
Humitat 72%
Pressió 1027 hPa
Visibilitat 10 km o més
Escasses núvols a una alçada de 2600 ft
Núvols disperses a una alçada de 4000 ft

METAR: SBFL 121700Z 19009KT 9999 FEW026 SCT040 15/10 Q1027

Hora: 14:25 (17:25 UTC)

Pronòstic

L'informe es va fer fa 8 hores i 25 minuts, a les 09:00 UTC
Pronòstic vàlid del 12 a les 12 UTC al 13 a les 12 UTC
Vent 10 kt del Sud/Sud-Oest
Visibilitat 10 km o més
Escasses núvols a una alçada de 1500 ft
Cel ennuvolat a una alçada de 3000 ft

TAF: SBFL 120900Z 1212/1312 20010KT 9999 FEW015 BKN030 TX18/1217Z TN13/1305Z RMK PEB

Observacions i pronòstics meteorològics de més de 4000 aeroports (METAR i TAF).

Les estacions disponibles són els punts grocs i vermells al mapa.

Posi el ratolí al punt desitjat per veure el nom de l'estació.

Feu clic per veure les observacions i els pronòstics meteorològics.

Per canviar el mapa: feu clic els botons verds amb una creu de color negre per apropar; al botó verd amb un guió per allunyar la imatge; o en les fletxes verdes per a mapes adjacents.


METAR-TAF: